createdAt,value
2018-04-24T00:00:35.211Z,6.03
2018-04-24T00:04:38.489Z,8.27
2018-04-24T00:08:41.020Z,6.87
2018-04-24T00:12:43.548Z,7.13
2018-04-24T00:16:46.086Z,9.00
2018-04-24T00:20:48.630Z,6.27
2018-04-24T00:24:51.150Z,6.73
2018-04-24T00:28:53.719Z,11.60
2018-04-24T00:32:57.018Z,8.80
2018-04-24T00:37:00.315Z,7.60
2018-04-24T00:41:02.855Z,8.17
2018-04-24T00:45:05.359Z,6.67
2018-04-24T00:49:07.886Z,9.37
2018-04-24T00:53:23.006Z,14.30
2018-04-24T00:57:26.315Z,7.33
2018-04-24T01:01:28.845Z,8.30
2018-04-24T01:05:32.135Z,7.27
2018-04-24T01:09:34.646Z,8.23
2018-04-24T01:13:37.183Z,6.00
2018-04-24T01:17:39.737Z,8.30
2018-04-24T01:21:42.288Z,6.87
2018-04-24T01:25:45.582Z,8.60
2018-04-24T01:29:48.104Z,10.17
2018-04-24T01:33:50.635Z,8.17
2018-04-24T01:37:53.165Z,8.43
2018-04-24T01:41:56.422Z,7.73
2018-04-24T01:45:58.956Z,10.30
2018-04-24T01:50:01.488Z,8.67
2018-04-24T01:54:04.004Z,10.57
2018-04-24T01:58:07.299Z,8.77
2018-04-24T02:02:10.602Z,9.90
2018-04-24T02:06:13.908Z,9.80
2018-04-24T02:10:16.442Z,10.27
2018-04-24T02:14:18.959Z,11.37
2018-04-24T02:18:21.499Z,11.47
2018-04-24T02:22:24.031Z,8.60
2018-04-24T02:26:26.596Z,9.37
2018-04-24T02:30:29.128Z,9.77
2018-04-24T02:34:31.640Z,8.27
2018-04-24T02:38:34.180Z,10.40
2018-04-24T02:42:36.715Z,10.03
2018-04-24T02:46:39.255Z,11.90
2018-04-24T02:50:42.557Z,8.50
2018-04-24T02:54:45.828Z,9.40
2018-04-24T02:58:48.362Z,11.90
2018-04-24T03:02:50.886Z,8.73
2018-04-24T03:06:53.464Z,10.73
2018-04-24T03:10:55.996Z,10.17
2018-04-24T03:14:59.275Z,12.50
2018-04-24T03:19:01.824Z,13.33
2018-04-24T03:23:04.363Z,9.80
2018-04-24T03:27:07.671Z,11.53
2018-04-24T03:31:10.977Z,12.80
2018-04-24T03:35:13.511Z,10.67
2018-04-24T03:39:16.052Z,13.70
2018-04-24T03:43:19.348Z,13.97
2018-04-24T03:47:22.651Z,17.67
2018-04-24T03:51:25.969Z,17.53
2018-04-24T03:55:28.486Z,21.30
2018-04-24T03:59:31.029Z,16.80
2018-04-24T04:03:34.329Z,16.17
2018-04-24T04:07:36.987Z,18.00
2018-04-24T04:11:40.194Z,20.60
2018-04-24T04:15:42.737Z,16.83
2018-04-24T04:19:57.136Z,17.47
2018-04-24T04:24:11.491Z,21.00
2018-04-24T04:28:14.869Z,15.20
2018-04-24T04:32:17.611Z,25.70
2018-04-24T04:36:20.896Z,14.27
2018-04-24T04:40:23.436Z,10.80
2018-04-24T04:44:25.971Z,16.97
2018-04-24T04:48:28.511Z,11.90
2018-04-24T04:52:31.023Z,15.83
2018-04-24T04:56:33.555Z,12.40
2018-04-24T05:00:36.867Z,13.60
2018-04-24T05:04:39.414Z,11.13
2018-04-24T05:08:41.948Z,13.73
2018-04-24T05:12:44.502Z,12.97
2018-04-24T05:16:47.795Z,9.57
2018-04-24T05:20:50.336Z,17.63
2018-04-24T05:24:52.867Z,10.23
2018-04-24T05:28:55.403Z,10.33
2018-04-24T05:32:57.935Z,10.00
2018-04-24T05:37:00.480Z,17.87
2018-04-24T05:41:03.013Z,13.90
2018-04-24T05:45:06.322Z,10.23
2018-04-24T05:49:08.919Z,12.73
2018-04-24T05:53:11.423Z,10.77
2018-04-24T05:57:13.955Z,10.93
2018-04-24T06:01:16.490Z,8.23
2018-04-24T06:05:19.022Z,7.73
2018-04-24T06:09:21.535Z,12.73
2018-04-24T06:13:24.064Z,9.93
2018-04-24T06:17:26.600Z,11.07
2018-04-24T06:21:29.128Z,8.80
2018-04-24T06:25:31.658Z,8.80
2018-04-24T06:29:34.940Z,8.97
2018-04-24T06:33:37.469Z,8.77
2018-04-24T06:37:40.015Z,11.03
2018-04-24T06:41:42.568Z,8.93
2018-04-24T06:45:45.100Z,10.23
2018-04-24T06:49:48.383Z,9.67
2018-04-24T06:53:50.919Z,10.37
2018-04-24T06:57:53.462Z,10.83
2018-04-24T07:01:55.991Z,11.50
2018-04-24T07:05:58.527Z,7.33
2018-04-24T07:10:01.823Z,9.53
2018-04-24T07:14:04.371Z,11.90
2018-04-24T07:18:06.902Z,11.37
2018-04-24T07:22:09.456Z,12.43
2018-04-24T07:26:11.988Z,9.57
2018-04-24T07:30:15.276Z,11.97
2018-04-24T07:34:17.807Z,9.97
2018-04-24T07:38:20.343Z,12.73
2018-04-24T07:42:22.884Z,11.57
2018-04-24T07:46:25.402Z,13.07
2018-04-24T07:50:27.951Z,16.73
2018-04-24T07:54:30.487Z,9.23
2018-04-24T07:58:33.024Z,11.33
2018-04-24T08:02:35.567Z,10.60
2018-04-24T08:06:38.859Z,13.47
2018-04-24T08:10:41.395Z,14.37
2018-04-24T08:14:43.926Z,9.80
2018-04-24T08:18:46.465Z,12.83
2018-04-24T08:22:49.662Z,15.43
2018-04-24T08:26:52.184Z,10.53
2018-04-24T08:30:54.758Z,14.70
2018-04-24T08:34:57.292Z,12.87
2018-04-24T08:39:00.710Z,14.03
2018-04-24T08:43:03.156Z,14.00
2018-04-24T08:47:05.667Z,13.23
2018-04-24T08:51:08.211Z,14.33
2018-04-24T08:55:10.761Z,14.23
2018-04-24T08:59:13.294Z,19.73
2018-04-24T09:03:15.827Z,14.00
2018-04-24T09:07:18.339Z,14.33
2018-04-24T09:11:20.891Z,15.93
2018-04-24T09:15:23.431Z,13.67
2018-04-24T09:19:26.312Z,15.03
2018-04-24T09:23:28.847Z,15.43
2018-04-24T09:27:31.367Z,15.30
2018-04-24T09:31:39.543Z,15.37
2018-04-24T09:35:42.088Z,19.10
2018-04-24T09:39:44.620Z,19.67
2018-04-24T09:43:47.162Z,21.50
2018-04-24T09:47:49.687Z,18.77
2018-04-24T09:51:52.222Z,18.07
2018-04-24T09:55:54.768Z,18.33
2018-04-24T09:59:57.303Z,19.67
2018-04-24T10:04:00.614Z,22.73
2018-04-24T10:08:03.905Z,21.67
2018-04-24T10:12:06.442Z,20.73
2018-04-24T10:16:08.976Z,23.20
2018-04-24T10:20:11.515Z,24.67
2018-04-24T10:24:14.055Z,22.37
2018-04-24T10:28:16.730Z,21.70
2018-04-24T10:32:19.271Z,23.80
2018-04-24T10:36:21.815Z,24.97
2018-04-24T10:40:25.118Z,22.93
2018-04-24T10:44:28.421Z,22.87
2018-04-24T10:48:31.702Z,23.47
2018-04-24T10:52:34.239Z,22.63
2018-04-24T10:56:36.814Z,26.80
2018-04-24T11:00:39.372Z,26.87
2018-04-24T11:04:41.902Z,25.47
2018-04-24T11:08:44.424Z,25.87
2018-04-24T11:12:46.966Z,29.57
2018-04-24T11:16:49.509Z,27.77
2018-04-24T11:20:52.051Z,35.30
2018-04-24T11:24:54.583Z,25.67
2018-04-24T11:28:57.881Z,28.05
2018-04-24T11:33:00.415Z,26.77
2018-04-24T11:37:02.958Z,33.53
2018-04-24T11:41:06.284Z,28.70
2018-04-24T11:45:08.828Z,29.10
2018-04-24T11:49:11.359Z,30.07
2018-04-24T11:53:13.892Z,31.27
2018-04-24T11:57:16.428Z,30.67
2018-04-24T12:01:18.963Z,31.23
2018-04-24T12:05:21.496Z,30.60
2018-04-24T12:09:24.016Z,32.27
2018-04-24T12:13:26.557Z,32.87
2018-04-24T12:17:29.863Z,32.90
2018-04-24T12:21:32.406Z,31.37
2018-04-24T12:25:34.941Z,36.23
2018-04-24T12:29:37.457Z,31.17
2018-04-24T12:33:39.993Z,30.13
2018-04-24T12:37:43.291Z,25.97
2018-04-24T12:41:46.591Z,18.27
2018-04-24T12:45:49.896Z,18.63
2018-04-24T12:49:53.180Z,23.93
2018-04-24T12:53:55.726Z,22.37
2018-04-24T12:57:58.259Z,26.30
2018-04-24T13:02:00.794Z,24.23
2018-04-24T13:06:03.327Z,26.23
2018-04-24T13:10:05.842Z,23.27
2018-04-24T13:14:08.383Z,19.60
2018-04-24T13:18:10.923Z,16.37
2018-04-24T13:22:13.455Z,26.13
2018-04-24T13:26:16.000Z,20.83
2018-04-24T13:30:18.515Z,18.17
2018-04-24T13:34:21.047Z,17.27
2018-04-24T13:38:23.591Z,23.57
2018-04-24T13:42:26.126Z,22.90
2018-04-24T13:46:28.667Z,21.17
2018-04-24T13:50:31.204Z,21.83
2018-04-24T13:54:33.735Z,19.67
2018-04-24T13:58:36.333Z,21.33
2018-04-24T14:02:38.862Z,20.07
2018-04-24T14:06:41.396Z,15.27
2018-04-24T14:10:43.954Z,12.97
2018-04-24T14:14:46.491Z,12.87
2018-04-24T14:18:49.796Z,15.13
2018-04-24T14:22:52.331Z,14.63
2018-04-24T14:26:54.873Z,14.63
2018-04-24T14:30:57.419Z,14.57
2018-04-24T14:34:59.967Z,13.30
2018-04-24T14:39:02.508Z,13.67
2018-04-24T14:43:05.811Z,13.90
2018-04-24T14:47:08.366Z,15.57
2018-04-24T14:51:10.912Z,16.57
2018-04-24T14:55:13.428Z,15.03
2018-04-24T14:59:15.971Z,19.87
2018-04-24T15:03:18.516Z,25.90
2018-04-24T15:07:21.048Z,27.43
2018-04-24T15:11:23.583Z,30.17
2018-04-24T15:15:26.431Z,32.97
2018-04-24T15:19:29.331Z,32.13
2018-04-24T15:23:31.883Z,33.03
2018-04-24T15:27:35.241Z,36.07
2018-04-24T15:31:38.476Z,31.53
2018-04-24T15:35:41.764Z,36.93
2018-04-24T15:39:44.304Z,32.60
2018-04-24T15:43:46.835Z,32.50
2018-04-24T15:47:49.373Z,30.83
2018-04-24T15:51:51.903Z,31.93
2018-04-24T15:55:54.416Z,30.43
2018-04-24T15:59:56.954Z,28.63
2018-04-24T16:03:59.515Z,27.20
2018-04-24T16:08:02.071Z,27.80
2018-04-24T16:12:04.606Z,27.97
2018-04-24T16:16:07.124Z,25.30
2018-04-24T16:20:09.664Z,27.93
2018-04-24T16:24:12.528Z,26.67
2018-04-24T16:28:15.012Z,32.07
2018-04-24T16:32:17.543Z,26.83
2018-04-24T16:36:20.060Z,25.70
2018-04-24T16:40:23.360Z,26.73
2018-04-24T16:44:26.688Z,25.20
2018-04-24T16:48:29.222Z,27.30
2018-04-24T16:52:31.760Z,22.97
2018-04-24T16:56:34.275Z,21.77
2018-04-24T17:00:36.880Z,22.10
2018-04-24T17:04:39.375Z,24.57
2018-04-24T17:08:41.915Z,20.97
2018-04-24T17:12:44.452Z,22.97
2018-04-24T17:16:47.743Z,21.37
2018-04-24T17:20:50.284Z,20.60
2018-04-24T17:24:52.831Z,23.83
2018-04-24T17:28:56.203Z,27.73
2018-04-24T17:32:58.750Z,22.10
2018-04-24T17:37:01.262Z,22.37
2018-04-24T17:41:03.802Z,24.20
2018-04-24T17:45:06.351Z,23.17
2018-04-24T17:49:08.886Z,20.33
2018-04-24T17:53:11.434Z,23.53
2018-04-24T17:57:14.033Z,21.87
2018-04-24T18:01:16.528Z,19.63
2018-04-24T18:05:19.075Z,23.90
2018-04-24T18:09:21.747Z,23.03
2018-04-24T18:13:24.288Z,18.70
2018-04-24T18:17:26.833Z,21.67
2018-04-24T18:21:29.399Z,21.13
2018-04-24T18:25:31.912Z,18.47
2018-04-24T18:29:34.451Z,19.70
2018-04-24T18:33:36.991Z,19.63
2018-04-24T18:37:42.964Z,19.33
2018-04-24T18:41:46.384Z,22.43
2018-04-24T18:45:48.907Z,20.37
2018-04-24T18:49:51.447Z,22.27
2018-04-24T18:53:54.753Z,21.03
2018-04-24T18:57:57.287Z,21.47
2018-04-24T19:01:59.855Z,20.57
2018-04-24T19:06:03.141Z,20.50
2018-04-24T19:10:05.691Z,20.57
2018-04-24T19:14:14.614Z,22.60
2018-04-24T19:18:17.147Z,24.00
2018-04-24T19:22:19.692Z,18.87
2018-04-24T19:26:22.991Z,20.47
2018-04-24T19:30:25.514Z,18.33
2018-04-24T19:34:28.077Z,18.47
2018-04-24T19:38:31.380Z,21.53
2018-04-24T19:42:34.696Z,20.40
2018-04-24T19:46:37.229Z,18.40
2018-04-24T19:50:39.758Z,18.87
2018-04-24T19:54:48.736Z,20.80
2018-04-24T19:58:51.267Z,22.07
2018-04-24T20:02:54.651Z,18.80
2018-04-24T20:06:58.564Z,20.20
2018-04-24T20:11:01.192Z,25.60
2018-04-24T20:15:03.878Z,19.43
2018-04-24T20:19:06.491Z,19.63
2018-04-24T20:23:09.112Z,19.77
2018-04-24T20:27:11.743Z,20.50
2018-04-24T20:31:19.127Z,21.03
2018-04-24T20:35:21.768Z,24.63
2018-04-24T20:39:24.311Z,24.60
2018-04-24T20:43:26.851Z,22.50
2018-04-24T20:47:29.436Z,26.67
2018-04-24T20:51:31.963Z,22.50
2018-04-24T20:55:35.271Z,23.90
2018-04-24T20:59:37.816Z,24.60
2018-04-24T21:03:41.007Z,23.13
2018-04-24T21:07:43.637Z,22.83
2018-04-24T21:11:46.919Z,24.97
2018-04-24T21:15:50.216Z,22.87
2018-04-24T21:19:52.826Z,23.70
2018-04-24T21:23:56.136Z,24.87
2018-04-24T21:27:58.679Z,24.73
2018-04-24T21:32:01.194Z,24.10
2018-04-24T21:36:03.736Z,28.43
2018-04-24T21:40:06.954Z,27.33
2018-04-24T21:44:09.512Z,26.70
2018-04-24T21:48:12.055Z,27.27
2018-04-24T21:52:14.796Z,28.73
2018-04-24T21:56:17.490Z,28.43
2018-04-24T22:00:21.513Z,29.93
2018-04-24T22:04:24.066Z,29.33
2018-04-24T22:08:26.607Z,32.63
2018-04-24T22:12:29.925Z,31.70
2018-04-24T22:16:33.205Z,32.00
2018-04-24T22:20:35.765Z,31.53
2018-04-24T22:24:38.300Z,30.47
2018-04-24T22:28:41.604Z,31.73
2018-04-24T22:32:44.915Z,33.00
2018-04-24T22:36:47.428Z,34.03
2018-04-24T22:40:49.962Z,34.47
2018-04-24T22:44:52.508Z,31.80
2018-04-24T22:48:55.083Z,34.10
2018-04-24T22:52:57.623Z,37.53
2018-04-24T22:57:00.904Z,35.30
2018-04-24T23:01:03.441Z,39.00
2018-04-24T23:05:05.983Z,42.53
2018-04-24T23:09:08.523Z,39.87
2018-04-24T23:13:23.027Z,42.43
2018-04-24T23:17:38.061Z,41.30
2018-04-24T23:21:40.099Z,44.50
2018-04-24T23:25:43.407Z,43.00
2018-04-24T23:33:56.347Z,36.37
2018-04-24T23:37:58.864Z,39.70
2018-04-24T23:42:01.401Z,37.73
2018-04-24T23:46:03.946Z,35.83
2018-04-24T23:50:06.495Z,40.87
2018-04-24T23:54:09.798Z,39.20
2018-04-24T23:58:13.090Z,39.13
